createdAt,value
2023-03-05T00:01:27.001Z,8.40
2023-03-05T00:03:56.423Z,8.40
2023-03-05T00:06:25.655Z,8.36
2023-03-05T00:08:56.772Z,8.38
2023-03-05T00:11:25.653Z,8.38
2023-03-05T00:13:53.636Z,8.37
2023-03-05T00:16:22.375Z,8.39
2023-03-05T00:18:50.520Z,8.42
2023-03-05T00:21:20.997Z,8.46
2023-03-05T00:23:50.686Z,8.49
2023-03-05T00:26:20.772Z,8.45
2023-03-05T00:28:49.997Z,8.40
2023-03-05T00:31:17.946Z,8.42
2023-03-05T00:33:45.686Z,8.45
2023-03-05T00:36:13.365Z,8.45
2023-03-05T00:38:41.008Z,8.44
2023-03-05T00:41:09.642Z,8.44
2023-03-05T00:43:38.686Z,8.45
2023-03-05T00:46:06.504Z,8.42
2023-03-05T00:48:34.304Z,8.44
2023-03-05T00:51:02.019Z,8.42
2023-03-05T00:53:29.842Z,8.41
2023-03-05T00:55:57.486Z,8.41
2023-03-05T00:58:25.220Z,8.39
2023-03-05T01:00:54.223Z,8.37
2023-03-05T01:03:21.886Z,8.38
2023-03-05T01:05:49.519Z,8.40
2023-03-05T01:08:17.660Z,8.43
2023-03-05T01:10:45.361Z,8.45
2023-03-05T01:13:13.366Z,8.43
2023-03-05T01:15:41.190Z,8.44
2023-03-05T01:18:10.217Z,8.41
2023-03-05T01:20:37.825Z,8.43
2023-03-05T01:23:05.533Z,8.44
2023-03-05T01:25:33.337Z,8.45
2023-03-05T01:28:01.371Z,8.45
2023-03-05T01:30:29.445Z,8.41
2023-03-05T01:32:57.519Z,8.39
2023-03-05T01:35:27.591Z,8.36
2023-03-05T01:37:55.726Z,8.39
2023-03-05T01:40:27.091Z,8.38
2023-03-05T01:42:59.567Z,8.37
2023-03-05T01:45:27.756Z,8.36
2023-03-05T01:47:55.398Z,8.38
2023-03-05T01:50:27.979Z,8.39
2023-03-05T01:53:00.144Z,8.39
2023-03-05T01:55:30.437Z,8.36
2023-03-05T01:58:05.111Z,8.33
2023-03-05T02:00:38.646Z,8.34
2023-03-05T02:03:08.537Z,8.33
2023-03-05T02:05:39.578Z,8.33
2023-03-05T02:08:09.203Z,8.30
2023-03-05T02:10:40.181Z,8.27
2023-03-05T02:13:10.549Z,8.29
2023-03-05T02:15:39.570Z,8.25
2023-03-05T02:18:08.200Z,8.26
2023-03-05T02:20:47.324Z,8.27
2023-03-05T02:23:17.635Z,8.25
2023-03-05T02:25:45.620Z,8.26
2023-03-05T02:28:19.578Z,8.30
2023-03-05T02:30:47.428Z,8.28
2023-03-05T02:33:15.827Z,8.27
2023-03-05T02:35:44.593Z,8.23
2023-03-05T02:38:12.720Z,8.26
2023-03-05T02:40:41.788Z,8.26
2023-03-05T02:43:10.268Z,8.22
2023-03-05T02:45:38.453Z,8.23
2023-03-05T02:48:06.590Z,8.18
2023-03-05T02:50:35.372Z,8.18
2023-03-05T02:53:03.417Z,8.21
2023-03-05T02:55:31.095Z,8.21
2023-03-05T02:58:00.187Z,8.23
2023-03-05T03:00:28.064Z,8.22
2023-03-05T03:02:55.937Z,8.25
2023-03-05T03:05:23.723Z,8.30
2023-03-05T03:07:52.337Z,8.38
2023-03-05T03:10:20.015Z,8.36
2023-03-05T03:12:47.700Z,8.37
2023-03-05T03:15:18.620Z,8.35
2023-03-05T03:17:46.652Z,8.30
2023-03-05T03:20:16.646Z,8.35
2023-03-05T03:22:46.039Z,8.32
2023-03-05T03:25:15.574Z,8.33
2023-03-05T03:27:43.345Z,8.30
2023-03-05T03:30:12.764Z,8.31
2023-03-05T03:32:41.776Z,8.29
2023-03-05T03:35:10.683Z,8.30
2023-03-05T03:37:38.668Z,8.29
2023-03-05T03:40:08.028Z,8.24
2023-03-05T03:42:35.796Z,8.23
2023-03-05T03:45:03.638Z,8.20
2023-03-05T03:47:31.476Z,8.17
2023-03-05T03:50:00.565Z,8.16
2023-03-05T03:52:28.174Z,8.14
2023-03-05T03:55:01.398Z,8.12
2023-03-05T03:57:30.747Z,8.14
2023-03-05T03:59:58.374Z,8.12
2023-03-05T04:02:26.414Z,8.10
2023-03-05T04:04:54.325Z,8.13
2023-03-05T04:07:23.487Z,8.15
2023-03-05T04:09:51.197Z,8.14
2023-03-05T04:12:18.997Z,8.15
2023-03-05T04:14:47.012Z,8.12
2023-03-05T04:17:15.907Z,8.13
2023-03-05T04:19:44.405Z,8.09
2023-03-05T04:22:13.233Z,8.11
2023-03-05T04:24:42.558Z,8.07
2023-03-05T04:27:10.402Z,8.04
2023-03-05T04:29:38.363Z,8.05
2023-03-05T04:32:06.732Z,8.04
2023-03-05T04:34:35.213Z,8.04
2023-03-05T04:37:02.955Z,8.01
2023-03-05T04:39:30.904Z,8.02
2023-03-05T04:41:59.920Z,8.01
2023-03-05T04:44:27.609Z,7.93
2023-03-05T04:46:55.315Z,7.94
2023-03-05T04:49:22.956Z,7.95
2023-03-05T04:51:50.626Z,7.97
2023-03-05T04:54:18.414Z,7.93
2023-03-05T04:56:46.201Z,7.96
2023-03-05T04:59:15.185Z,7.93
2023-03-05T05:01:43.091Z,7.91
2023-03-05T05:04:10.835Z,7.92
2023-03-05T05:06:38.532Z,7.96
2023-03-05T05:09:06.374Z,7.95
2023-03-05T05:11:34.066Z,7.96
2023-03-05T05:14:01.829Z,7.96
2023-03-05T05:16:31.211Z,7.93
2023-03-05T05:19:00.059Z,7.94
2023-03-05T05:21:27.758Z,7.92
2023-03-05T05:23:55.411Z,7.90
2023-03-05T05:26:23.141Z,7.90
2023-03-05T05:28:50.713Z,7.89
2023-03-05T05:31:19.675Z,7.92
2023-03-05T05:33:49.910Z,7.92
2023-03-05T05:36:20.076Z,7.92
2023-03-05T05:38:47.753Z,7.94
2023-03-05T05:41:18.908Z,7.92
2023-03-05T05:43:46.936Z,7.90
2023-03-05T05:46:16.441Z,7.88
2023-03-05T05:48:45.325Z,7.86
2023-03-05T05:51:17.254Z,7.85
2023-03-05T05:53:45.417Z,7.87
2023-03-05T05:56:14.708Z,7.86
2023-03-05T05:58:43.832Z,7.84
2023-03-05T06:01:16.643Z,7.81
2023-03-05T06:03:44.281Z,7.80
2023-03-05T06:06:15.177Z,7.83
2023-03-05T06:08:42.925Z,7.85
2023-03-05T06:11:10.745Z,7.84
2023-03-05T06:13:38.428Z,7.85
2023-03-05T06:16:08.409Z,7.84
2023-03-05T06:18:36.734Z,7.85
2023-03-05T06:21:06.649Z,7.83
2023-03-05T06:23:36.023Z,7.82
2023-03-05T06:26:06.800Z,7.86
2023-03-05T06:28:34.729Z,7.85
2023-03-05T06:31:04.173Z,7.82
2023-03-05T06:33:32.588Z,7.80
2023-03-05T06:36:00.356Z,7.82
2023-03-05T06:38:28.119Z,7.85
2023-03-05T06:41:01.258Z,7.85
2023-03-05T06:43:28.872Z,7.89
2023-03-05T06:46:03.323Z,7.88
2023-03-05T06:48:31.031Z,7.83
2023-03-05T06:50:58.705Z,7.83
2023-03-05T06:53:27.220Z,7.81
2023-03-05T06:55:54.999Z,7.81
2023-03-05T06:58:24.743Z,7.83
2023-03-05T07:00:52.476Z,7.84
2023-03-05T07:03:20.170Z,7.84
2023-03-05T07:05:50.754Z,7.88
2023-03-05T07:08:18.754Z,7.90
2023-03-05T07:10:46.590Z,7.95
2023-03-05T07:13:14.201Z,7.97
2023-03-05T07:15:44.903Z,7.97
2023-03-05T07:18:12.526Z,7.97
2023-03-05T07:20:40.178Z,8.02
2023-03-05T07:23:07.984Z,8.12
2023-03-05T07:25:37.141Z,8.18
2023-03-05T07:28:06.399Z,8.21
2023-03-05T07:30:34.677Z,8.22
2023-03-05T07:33:03.697Z,8.27
2023-03-05T07:35:31.393Z,8.29
2023-03-05T07:37:59.169Z,8.32
2023-03-05T07:40:26.817Z,8.37
2023-03-05T07:42:54.643Z,8.32
2023-03-05T07:45:22.338Z,8.34
2023-03-05T07:47:52.453Z,8.38
2023-03-05T07:50:21.543Z,8.42
2023-03-05T07:52:49.238Z,8.49
2023-03-05T07:55:16.929Z,8.52
2023-03-05T07:57:44.575Z,8.57
2023-03-05T08:00:13.688Z,8.62
2023-03-05T08:02:41.447Z,8.62
2023-03-05T08:05:09.471Z,8.68
2023-03-05T08:07:38.462Z,8.68
2023-03-05T08:10:07.305Z,8.74
2023-03-05T08:12:35.265Z,8.78
2023-03-05T08:15:02.912Z,8.82
2023-03-05T08:17:30.582Z,8.87
2023-03-05T08:20:00.131Z,8.90
2023-03-05T08:22:27.884Z,8.93
2023-03-05T08:24:56.863Z,8.97
2023-03-05T08:27:24.579Z,8.98
2023-03-05T08:29:52.311Z,9.03
2023-03-05T08:32:20.501Z,9.04
2023-03-05T08:34:48.230Z,9.07
2023-03-05T08:37:15.929Z,9.08
2023-03-05T08:39:43.613Z,9.11
2023-03-05T08:42:12.587Z,9.19
2023-03-05T08:44:40.299Z,9.27
2023-03-05T08:47:08.306Z,9.36
2023-03-05T08:49:36.003Z,9.44
2023-03-05T08:52:03.685Z,9.47
2023-03-05T08:54:31.379Z,9.48
2023-03-05T08:56:59.092Z,9.49
2023-03-05T08:59:28.112Z,9.44
2023-03-05T09:01:55.936Z,9.43
2023-03-05T09:04:23.739Z,9.51
2023-03-05T09:06:51.742Z,9.59
2023-03-05T09:09:21.259Z,9.62
2023-03-05T09:11:48.844Z,9.63
2023-03-05T09:14:16.500Z,9.62
2023-03-05T09:16:45.895Z,9.54
2023-03-05T09:19:15.126Z,9.47
2023-03-05T09:21:43.134Z,9.40
2023-03-05T09:24:11.775Z,9.31
2023-03-05T09:26:40.971Z,9.25
2023-03-05T09:29:09.102Z,9.18
2023-03-05T09:31:37.220Z,9.20
2023-03-05T09:34:08.170Z,9.18
2023-03-05T09:36:36.010Z,9.06
2023-03-05T09:39:06.582Z,8.99
2023-03-05T09:41:52.182Z,9.06
2023-03-05T09:44:31.732Z,9.02
2023-03-05T09:47:14.816Z,9.07
2023-03-05T09:49:53.210Z,9.15
2023-03-05T09:52:25.011Z,9.26
2023-03-05T09:54:56.565Z,9.26
2023-03-05T09:57:30.090Z,9.32
2023-03-05T10:00:00.972Z,9.41
2023-03-05T10:02:32.754Z,9.51
2023-03-05T10:05:13.950Z,9.55
2023-03-05T10:07:44.561Z,9.54
2023-03-05T10:10:16.663Z,9.57
2023-03-05T10:12:46.515Z,9.50
2023-03-05T10:15:17.355Z,9.49
2023-03-05T10:18:02.391Z,9.49
2023-03-05T10:20:54.994Z,9.48
2023-03-05T10:23:30.045Z,9.54
2023-03-05T10:26:09.804Z,9.58
2023-03-05T10:28:49.843Z,9.61
2023-03-05T10:31:41.987Z,9.62
2023-03-05T10:34:34.961Z,9.69
2023-03-05T10:37:28.432Z,9.76
2023-03-05T10:40:09.847Z,9.74
2023-03-05T10:42:44.726Z,9.75
2023-03-05T10:45:16.816Z,9.64
2023-03-05T10:47:49.492Z,9.71
2023-03-05T10:50:20.935Z,9.77
2023-03-05T10:52:57.894Z,9.79
2023-03-05T10:55:25.637Z,9.79
2023-03-05T10:57:53.410Z,9.91
2023-03-05T11:00:23.478Z,9.98
2023-03-05T11:02:59.218Z,10.08
2023-03-05T11:05:48.983Z,10.14
2023-03-05T11:08:30.948Z,10.18
2023-03-05T11:11:14.668Z,10.20
2023-03-05T11:13:53.662Z,10.15
2023-03-05T11:16:23.833Z,10.04
2023-03-05T11:18:51.960Z,10.00
2023-03-05T11:21:23.944Z,9.97
2023-03-05T11:24:14.770Z,9.89
2023-03-05T11:26:51.090Z,9.85
2023-03-05T11:29:22.506Z,9.83
2023-03-05T11:31:51.025Z,9.78
2023-03-05T11:34:39.824Z,9.82
2023-03-05T11:37:08.049Z,9.81
2023-03-05T11:39:40.187Z,9.83
2023-03-05T11:42:12.788Z,9.79
2023-03-05T11:44:47.900Z,9.75
2023-03-05T11:47:24.122Z,9.68
2023-03-05T11:49:55.975Z,9.64
2023-03-05T11:52:27.898Z,9.61
2023-03-05T11:55:03.493Z,9.60
2023-03-05T11:57:41.770Z,9.58
2023-03-05T12:00:16.278Z,9.59
2023-03-05T12:02:44.258Z,9.54
2023-03-05T12:05:15.973Z,9.49
2023-03-05T12:07:48.374Z,9.52
2023-03-05T12:10:19.686Z,9.53
2023-03-05T12:12:54.336Z,9.47
2023-03-05T12:15:34.935Z,9.53
2023-03-05T12:18:11.197Z,9.58
2023-03-05T12:20:47.457Z,9.65
2023-03-05T12:23:19.415Z,9.68
2023-03-05T12:25:51.148Z,9.73
2023-03-05T12:28:56.183Z,9.74
2023-03-05T12:31:35.433Z,9.74
2023-03-05T12:34:36.808Z,9.74
2023-03-05T12:37:05.211Z,9.72
2023-03-05T12:39:52.627Z,9.62
2023-03-05T12:42:48.235Z,9.51
2023-03-05T12:45:38.253Z,9.38
2023-03-05T12:48:50.630Z,9.28
2023-03-05T12:51:40.609Z,9.28
2023-03-05T12:54:30.466Z,9.35
2023-03-05T12:57:00.292Z,9.40
2023-03-05T12:59:41.644Z,9.40
2023-03-05T13:02:29.875Z,9.43
2023-03-05T13:05:03.667Z,9.51
2023-03-05T13:07:31.426Z,9.55
2023-03-05T13:10:00.657Z,9.52
2023-03-05T13:12:30.993Z,9.52
2023-03-05T13:15:03.684Z,9.53
2023-03-05T13:17:39.218Z,9.56
2023-03-05T13:20:27.034Z,9.52
2023-03-05T13:23:15.046Z,9.59
2023-03-05T13:25:44.369Z,9.62
2023-03-05T13:28:13.754Z,9.61
2023-03-05T13:30:46.804Z,9.59
2023-03-05T13:33:18.941Z,9.60
2023-03-05T13:35:47.694Z,9.58
2023-03-05T13:38:25.517Z,9.50
2023-03-05T13:41:04.189Z,9.39
2023-03-05T13:43:32.419Z,9.34
2023-03-05T13:46:07.715Z,9.26
2023-03-05T13:48:35.545Z,9.23
2023-03-05T13:51:06.818Z,9.21
2023-03-05T13:53:35.450Z,9.22
2023-03-05T13:56:06.509Z,9.20
2023-03-05T13:58:48.810Z,9.17
2023-03-05T14:01:25.285Z,9.11
2023-03-05T14:03:56.113Z,9.04
2023-03-05T14:06:27.693Z,8.99
2023-03-05T14:09:03.658Z,8.98
2023-03-05T14:11:31.499Z,8.97
2023-03-05T14:14:06.481Z,8.96
2023-03-05T14:16:35.743Z,8.84
2023-03-05T14:19:07.242Z,8.85
2023-03-05T14:21:47.059Z,8.97
2023-03-05T14:24:22.172Z,8.99
2023-03-05T14:26:52.694Z,8.99
2023-03-05T14:29:23.667Z,9.04
2023-03-05T14:31:55.598Z,8.92
2023-03-05T14:34:28.319Z,8.97
2023-03-05T14:36:58.986Z,9.05
2023-03-05T14:39:41.671Z,9.13
2023-03-05T14:42:27.036Z,9.17
2023-03-05T14:44:55.703Z,9.27
2023-03-05T14:47:25.330Z,9.28
2023-03-05T14:49:53.036Z,9.21
2023-03-05T14:52:23.056Z,9.21
2023-03-05T14:54:50.946Z,9.38
2023-03-05T14:57:21.493Z,9.51
2023-03-05T14:59:49.209Z,9.55
2023-03-05T15:02:19.016Z,9.60
2023-03-05T15:04:48.339Z,9.65
2023-03-05T15:07:19.765Z,9.61
2023-03-05T15:09:47.424Z,9.57
2023-03-05T15:12:16.776Z,9.60
2023-03-05T15:14:44.658Z,9.54
2023-03-05T15:17:19.187Z,9.52
2023-03-05T15:19:48.594Z,9.51
2023-03-05T15:22:16.970Z,9.22
2023-03-05T15:24:45.641Z,9.16
2023-03-05T15:27:14.568Z,9.19
2023-03-05T15:29:42.618Z,9.23
2023-03-05T15:32:10.422Z,9.16
2023-03-05T15:34:38.231Z,9.20
2023-03-05T15:37:07.470Z,9.21
2023-03-05T15:39:35.151Z,9.17
2023-03-05T15:42:04.453Z,9.18
2023-03-05T15:44:33.017Z,9.06
2023-03-05T15:47:00.865Z,8.93
2023-03-05T15:49:28.857Z,9.01
2023-03-05T15:51:57.009Z,8.82
2023-03-05T15:54:26.291Z,8.61
2023-03-05T15:56:54.054Z,8.46
2023-03-05T15:59:22.018Z,8.37
2023-03-05T16:01:52.081Z,8.46
2023-03-05T16:04:20.154Z,8.39
2023-03-05T16:06:50.467Z,8.29
2023-03-05T16:09:20.583Z,8.24
2023-03-05T16:11:51.519Z,8.30
2023-03-05T16:14:28.165Z,8.26
2023-03-05T16:16:58.993Z,8.20
2023-03-05T16:19:27.901Z,8.21
2023-03-05T16:21:58.345Z,8.20
2023-03-05T16:24:26.009Z,8.36
2023-03-05T16:26:55.334Z,8.38
2023-03-05T16:29:23.124Z,8.37
2023-03-05T16:31:50.827Z,8.25
2023-03-05T16:34:18.835Z,8.16
2023-03-05T16:36:50.233Z,8.12
2023-03-05T16:39:18.028Z,8.12
2023-03-05T16:41:45.820Z,8.25
2023-03-05T16:44:14.921Z,8.32
2023-03-05T16:46:43.936Z,8.42
2023-03-05T16:49:12.326Z,8.42
2023-03-05T16:51:40.117Z,8.49
2023-03-05T16:54:10.073Z,8.55
2023-03-05T16:56:37.989Z,8.50
2023-03-05T16:59:05.859Z,8.57
2023-03-05T17:01:37.061Z,8.55
2023-03-05T17:04:04.907Z,8.59
2023-03-05T17:06:34.759Z,8.54
2023-03-05T17:09:02.815Z,8.55
2023-03-05T17:11:30.538Z,8.48
2023-03-05T17:13:58.411Z,8.46
2023-03-05T17:16:26.179Z,8.44
2023-03-05T17:18:55.222Z,8.45
2023-03-05T17:21:22.892Z,8.42
2023-03-05T17:23:50.667Z,8.40
2023-03-05T17:26:20.798Z,8.40
2023-03-05T17:28:48.560Z,8.44
2023-03-05T17:31:16.619Z,8.48
2023-03-05T17:33:44.443Z,8.55
2023-03-05T17:36:18.409Z,8.55
2023-03-05T17:38:47.589Z,8.50
2023-03-05T17:41:16.309Z,8.48
2023-03-05T17:43:44.097Z,8.42
2023-03-05T17:46:12.393Z,8.44
2023-03-05T17:48:40.165Z,8.52
2023-03-05T17:51:08.747Z,8.55
2023-03-05T17:53:39.408Z,8.56
2023-03-05T17:56:09.272Z,8.55
2023-03-05T17:58:37.354Z,8.45
2023-03-05T18:01:06.525Z,8.41
2023-03-05T18:03:34.523Z,8.36
2023-03-05T18:06:02.235Z,8.40
2023-03-05T18:08:29.834Z,8.40
2023-03-05T18:10:58.930Z,8.39
2023-03-05T18:13:26.579Z,8.34
2023-03-05T18:15:54.299Z,8.43
2023-03-05T18:18:21.960Z,8.45
2023-03-05T18:20:50.195Z,8.41
2023-03-05T18:23:17.853Z,8.27
2023-03-05T18:25:45.716Z,8.12
2023-03-05T18:28:16.353Z,8.10
2023-03-05T18:30:46.518Z,8.08
2023-03-05T18:33:19.794Z,8.08
2023-03-05T18:35:49.610Z,8.13
2023-03-05T18:38:17.336Z,8.18
2023-03-05T18:40:46.514Z,8.24
2023-03-05T18:43:17.293Z,8.29
2023-03-05T18:45:46.834Z,8.27
2023-03-05T18:48:14.588Z,8.19
2023-03-05T18:50:42.480Z,8.17
2023-03-05T18:53:13.000Z,8.14
2023-03-05T18:55:42.101Z,8.13
2023-03-05T18:58:09.873Z,8.15
2023-03-05T19:00:40.883Z,8.13
2023-03-05T19:03:08.958Z,8.21
2023-03-05T19:05:36.649Z,8.22
2023-03-05T19:08:04.373Z,8.26
2023-03-05T19:10:32.827Z,8.20
2023-03-05T19:13:15.692Z,8.25
2023-03-05T19:15:44.910Z,8.19
2023-03-05T19:18:13.111Z,8.09
2023-03-05T19:20:41.010Z,7.97
2023-03-05T19:23:08.677Z,7.95
2023-03-05T19:25:36.691Z,7.92
2023-03-05T19:28:04.368Z,7.97
2023-03-05T19:30:32.195Z,8.04
2023-03-05T19:33:01.361Z,8.05
2023-03-05T19:35:29.029Z,8.13
2023-03-05T19:37:56.695Z,8.15
2023-03-05T19:40:24.431Z,8.16
2023-03-05T19:42:52.105Z,8.08
2023-03-05T19:45:20.074Z,8.03
2023-03-05T19:47:47.712Z,7.98
2023-03-05T19:50:17.264Z,8.00
2023-03-05T19:52:45.018Z,8.04
2023-03-05T19:55:12.823Z,8.00
2023-03-05T19:57:40.503Z,8.02
2023-03-05T20:00:09.738Z,8.02
2023-03-05T20:02:37.446Z,8.06
2023-03-05T20:05:10.370Z,8.07
2023-03-05T20:07:39.332Z,8.05
2023-03-05T20:10:07.788Z,8.07
2023-03-05T20:12:36.518Z,8.09
2023-03-05T20:15:04.509Z,8.16
2023-03-05T20:17:32.173Z,8.20
2023-03-05T20:20:00.194Z,8.15
2023-03-05T20:22:27.854Z,8.19
2023-03-05T20:24:56.929Z,8.14
2023-03-05T20:27:24.653Z,7.99
2023-03-05T20:29:52.325Z,7.97
2023-03-05T20:32:19.945Z,7.92
2023-03-05T20:34:51.087Z,7.87
2023-03-05T20:37:18.856Z,7.95
2023-03-05T20:39:46.512Z,8.03
2023-03-05T20:42:15.580Z,8.10
2023-03-05T20:44:43.202Z,8.08
2023-03-05T20:47:26.112Z,8.09
2023-03-05T20:49:55.830Z,8.11
2023-03-05T20:52:23.713Z,8.08
2023-03-05T20:54:51.471Z,8.10
2023-03-05T20:57:20.640Z,8.12
2023-03-05T20:59:48.266Z,8.11
2023-03-05T21:02:18.253Z,8.10
2023-03-05T21:04:46.053Z,8.12
2023-03-05T21:07:13.799Z,8.08
2023-03-05T21:09:41.609Z,8.09
2023-03-05T21:12:09.590Z,8.06
2023-03-05T21:14:40.500Z,8.05
2023-03-05T21:17:08.902Z,8.06
2023-03-05T21:19:39.895Z,7.98
2023-03-05T21:22:07.681Z,7.92
2023-03-05T21:24:52.094Z,7.84
2023-03-05T21:27:19.688Z,7.75
2023-03-05T21:29:48.783Z,7.71
2023-03-05T21:32:16.645Z,7.69
2023-03-05T21:34:44.438Z,7.66
2023-03-05T21:37:12.181Z,7.55
2023-03-05T21:39:39.882Z,7.47
2023-03-05T21:42:07.604Z,7.46
2023-03-05T21:44:35.232Z,7.48
2023-03-05T21:47:04.554Z,7.53
2023-03-05T21:49:32.221Z,7.57
2023-03-05T21:52:09.089Z,7.57
2023-03-05T21:54:36.970Z,7.53
2023-03-05T21:57:05.590Z,7.36
2023-03-05T21:59:33.593Z,7.44
2023-03-05T22:02:01.606Z,7.40
2023-03-05T22:04:30.600Z,7.21
2023-03-05T22:06:58.396Z,7.12
2023-03-05T22:09:26.038Z,7.09
2023-03-05T22:11:53.680Z,7.32
2023-03-05T22:14:21.440Z,7.47
2023-03-05T22:16:53.112Z,7.46
2023-03-05T22:19:20.945Z,7.44
2023-03-05T22:21:50.070Z,7.40
2023-03-05T22:24:17.694Z,7.35
2023-03-05T22:26:45.343Z,7.35
2023-03-05T22:29:13.223Z,7.30
2023-03-05T22:31:41.503Z,7.21
2023-03-05T22:34:09.272Z,7.21
2023-03-05T22:36:37.048Z,7.24
2023-03-05T22:39:06.147Z,7.36
2023-03-05T22:41:34.186Z,7.47
2023-03-05T22:44:01.830Z,7.49
2023-03-05T22:46:29.533Z,7.44
2023-03-05T22:48:57.298Z,7.36
2023-03-05T22:51:25.251Z,7.38
2023-03-05T22:53:53.011Z,7.38
2023-03-05T22:56:22.449Z,7.35
2023-03-05T22:58:50.405Z,7.43
2023-03-05T23:01:21.775Z,7.36
2023-03-05T23:03:55.486Z,7.41
2023-03-05T23:06:23.267Z,7.34
2023-03-05T23:08:51.287Z,7.35
2023-03-05T23:11:18.982Z,7.33
2023-03-05T23:13:48.044Z,7.37
2023-03-05T23:16:15.756Z,7.47
2023-03-05T23:18:43.678Z,7.53
2023-03-05T23:21:11.322Z,7.57
2023-03-05T23:23:39.056Z,7.59
2023-03-05T23:26:07.086Z,7.35
2023-03-05T23:28:34.829Z,7.30
2023-03-05T23:31:04.296Z,7.34
2023-03-05T23:33:32.222Z,7.38
2023-03-05T23:36:01.198Z,7.38
2023-03-05T23:38:30.893Z,7.39
2023-03-05T23:41:01.135Z,7.43
2023-03-05T23:43:29.726Z,7.42
2023-03-05T23:45:57.837Z,7.44
2023-03-05T23:48:28.314Z,7.38
2023-03-05T23:50:56.299Z,7.31
2023-03-05T23:53:26.519Z,7.34
2023-03-05T23:55:55.156Z,7.30
2023-03-05T23:58:22.906Z,7.36
